createdAt,value
2018-12-12T00:00:26.352Z,8.10
2018-12-12T00:02:54.789Z,8.04
2018-12-12T00:05:38.627Z,7.85
2018-12-12T00:08:06.973Z,7.89
2018-12-12T00:10:35.475Z,7.94
2018-12-12T00:13:03.847Z,7.93
2018-12-12T00:15:32.502Z,7.66
2018-12-12T00:18:01.222Z,7.68
2018-12-12T00:20:29.518Z,7.62
2018-12-12T00:22:57.908Z,7.55
2018-12-12T00:25:26.425Z,7.71
2018-12-12T00:27:54.730Z,7.86
2018-12-12T00:30:23.348Z,7.69
2018-12-12T00:32:51.692Z,7.85
2018-12-12T00:35:20.061Z,7.91
2018-12-12T00:37:48.490Z,7.88
2018-12-12T00:40:16.819Z,7.97
2018-12-12T00:42:45.190Z,7.84
2018-12-12T00:45:13.622Z,7.75
2018-12-12T00:47:41.978Z,7.80
2018-12-12T00:50:10.301Z,7.92
2018-12-12T00:52:38.661Z,7.93
2018-12-12T00:55:07.077Z,7.93
2018-12-12T00:57:35.823Z,7.86
2018-12-12T01:00:05.830Z,7.76
2018-12-12T01:02:34.182Z,7.74
2018-12-12T01:05:02.502Z,7.59
2018-12-12T01:07:30.902Z,7.66
2018-12-12T01:09:59.246Z,7.83
2018-12-12T01:12:27.557Z,7.79
2018-12-12T01:14:55.870Z,7.89
2018-12-12T01:17:24.235Z,7.96
2018-12-12T01:19:52.562Z,8.01
2018-12-12T01:22:20.971Z,8.06
2018-12-12T01:24:49.311Z,7.96
2018-12-12T01:27:17.690Z,8.02
2018-12-12T01:29:46.011Z,8.09
2018-12-12T01:32:14.345Z,8.06
2018-12-12T01:34:42.711Z,8.16
2018-12-12T01:37:11.191Z,7.97
2018-12-12T01:39:39.538Z,7.82
2018-12-12T01:42:07.856Z,7.90
2018-12-12T01:44:36.356Z,7.74
2018-12-12T01:47:04.698Z,7.76
2018-12-12T01:49:33.050Z,7.86
2018-12-12T01:52:01.407Z,7.76
2018-12-12T01:54:29.718Z,7.73
2018-12-12T01:56:58.040Z,7.74
2018-12-12T01:59:26.551Z,7.65
2018-12-12T02:01:54.924Z,7.57
2018-12-12T02:04:23.266Z,7.62
2018-12-12T02:06:51.728Z,7.71
2018-12-12T02:09:20.084Z,7.67
2018-12-12T02:11:48.402Z,7.72
2018-12-12T02:14:16.725Z,7.72
2018-12-12T02:16:45.091Z,7.72
2018-12-12T02:19:13.518Z,7.63
2018-12-12T02:21:41.969Z,7.80
2018-12-12T02:24:10.408Z,7.70
2018-12-12T02:26:38.730Z,7.86
2018-12-12T02:29:07.287Z,7.74
2018-12-12T02:31:35.675Z,7.70
2018-12-12T02:34:04.100Z,7.74
2018-12-12T02:36:32.501Z,7.81
2018-12-12T02:39:00.952Z,7.76
2018-12-12T02:41:29.438Z,7.70
2018-12-12T02:43:57.823Z,7.65
2018-12-12T02:46:26.425Z,7.46
2018-12-12T02:48:54.833Z,7.36
2018-12-12T02:51:23.645Z,7.38
2018-12-12T02:53:51.980Z,7.40
2018-12-12T02:56:20.286Z,7.37
2018-12-12T02:58:48.617Z,7.44
2018-12-12T03:01:17.008Z,7.55
2018-12-12T03:03:45.426Z,7.56
2018-12-12T03:06:13.756Z,7.57
2018-12-12T03:08:42.059Z,7.57
2018-12-12T03:11:10.349Z,7.59
2018-12-12T03:13:38.900Z,7.68
2018-12-12T03:16:07.273Z,7.58
2018-12-12T03:18:35.594Z,7.59
2018-12-12T03:21:03.929Z,7.57
2018-12-12T03:23:32.386Z,7.43
2018-12-12T03:26:00.686Z,7.48
2018-12-12T03:28:29.012Z,7.45
2018-12-12T03:30:57.322Z,7.58
2018-12-12T03:33:25.667Z,7.61
2018-12-12T03:35:54.268Z,7.64
2018-12-12T03:38:22.607Z,7.64
2018-12-12T03:40:51.021Z,7.69
2018-12-12T03:43:19.347Z,7.69
2018-12-12T03:45:47.725Z,7.74
2018-12-12T03:48:16.108Z,7.72
2018-12-12T03:50:44.546Z,7.82
2018-12-12T03:53:12.983Z,7.70
2018-12-12T03:55:41.380Z,7.82
2018-12-12T03:58:09.993Z,7.86
2018-12-12T04:00:38.470Z,7.63
2018-12-12T04:03:06.811Z,7.65
2018-12-12T04:05:35.239Z,7.79
2018-12-12T04:08:03.519Z,7.80
2018-12-12T04:10:31.970Z,7.91
2018-12-12T04:13:00.330Z,7.78
2018-12-12T04:15:28.677Z,7.78
2018-12-12T04:17:57.105Z,7.70
2018-12-12T04:20:25.514Z,7.69
2018-12-12T04:22:53.841Z,7.51
2018-12-12T04:25:22.148Z,7.37
2018-12-12T04:27:50.519Z,7.45
2018-12-12T04:30:18.809Z,7.59
2018-12-12T04:32:47.122Z,7.69
2018-12-12T04:35:15.467Z,7.61
2018-12-12T04:37:43.906Z,7.60
2018-12-12T04:40:12.225Z,7.75
2018-12-12T04:42:40.778Z,7.61
2018-12-12T04:45:09.174Z,7.60
2018-12-12T04:47:37.456Z,7.53
2018-12-12T04:50:05.880Z,7.61
2018-12-12T04:52:34.183Z,7.63
2018-12-12T04:55:04.504Z,7.64
2018-12-12T04:57:32.941Z,7.65
2018-12-12T05:00:01.261Z,7.67
2018-12-12T05:02:29.559Z,7.63
2018-12-12T05:04:57.962Z,7.64
2018-12-12T05:07:26.329Z,7.66
2018-12-12T05:09:54.674Z,7.59
2018-12-12T05:12:22.995Z,7.56
2018-12-12T05:14:51.329Z,7.49
2018-12-12T05:17:19.733Z,7.38
2018-12-12T05:19:48.062Z,7.07
2018-12-12T05:22:16.377Z,7.24
2018-12-12T05:24:44.663Z,7.29
2018-12-12T05:27:13.455Z,7.24
2018-12-12T05:29:41.774Z,7.07
2018-12-12T05:32:10.098Z,6.91
2018-12-12T05:34:38.425Z,7.24
2018-12-12T05:37:06.790Z,7.26
2018-12-12T05:39:35.136Z,7.28
2018-12-12T05:42:03.438Z,7.37
2018-12-12T05:44:31.730Z,7.50
2018-12-12T05:47:00.044Z,7.54
2018-12-12T05:49:28.569Z,7.51
2018-12-12T05:51:56.932Z,7.66
2018-12-12T05:54:25.280Z,7.54
2018-12-12T05:56:53.585Z,7.54
2018-12-12T05:59:22.180Z,7.43
2018-12-12T06:01:50.530Z,7.44
2018-12-12T06:04:18.865Z,7.58
2018-12-12T06:06:47.162Z,7.23
2018-12-12T06:09:15.461Z,7.43
2018-12-12T06:11:43.955Z,7.61
2018-12-12T06:14:12.248Z,7.58
2018-12-12T06:16:40.564Z,7.52
2018-12-12T06:19:09.003Z,7.62
2018-12-12T06:21:37.370Z,7.60
2018-12-12T06:24:05.702Z,7.64
2018-12-12T06:26:37.286Z,7.58
2018-12-12T06:29:04.461Z,7.37
2018-12-12T06:31:32.821Z,7.40
2018-12-12T06:34:01.243Z,7.43
2018-12-12T06:36:29.581Z,7.34
2018-12-12T06:38:58.777Z,7.24
2018-12-12T06:41:27.078Z,7.39
2018-12-12T06:43:55.397Z,7.49
2018-12-12T06:46:23.734Z,7.35
2018-12-12T06:48:52.081Z,7.39
2018-12-12T06:51:20.371Z,7.51
2018-12-12T06:53:48.700Z,7.54
2018-12-12T06:56:17.337Z,7.57
2018-12-12T06:58:45.670Z,7.61
2018-12-12T07:01:13.950Z,7.64
2018-12-12T07:03:42.293Z,7.58
2018-12-12T07:06:10.579Z,7.55
2018-12-12T07:08:38.905Z,7.62
2018-12-12T07:11:07.265Z,7.60
2018-12-12T07:13:35.908Z,7.69
2018-12-12T07:16:04.698Z,7.76
2018-12-12T07:18:33.167Z,7.80
2018-12-12T07:21:01.512Z,7.73
2018-12-12T07:23:29.818Z,7.73
2018-12-12T07:25:58.169Z,7.66
2018-12-12T07:28:26.472Z,7.77
2018-12-12T07:30:54.834Z,7.69
2018-12-12T07:33:23.204Z,7.78
2018-12-12T07:35:51.521Z,7.60
2018-12-12T07:38:19.863Z,7.57
2018-12-12T07:40:48.281Z,7.66
2018-12-12T07:43:16.585Z,7.78
2018-12-12T07:45:44.929Z,7.59
2018-12-12T07:48:13.282Z,7.81
2018-12-12T07:50:41.717Z,7.97
2018-12-12T07:53:10.023Z,7.84
2018-12-12T07:55:38.341Z,7.81
2018-12-12T07:58:06.711Z,7.83
2018-12-12T08:00:35.068Z,7.73
2018-12-12T08:03:06.339Z,7.68
2018-12-12T08:05:33.910Z,7.78
2018-12-12T08:08:02.242Z,7.79
2018-12-12T08:10:30.640Z,7.80
2018-12-12T08:12:58.944Z,7.81
2018-12-12T08:15:27.296Z,7.80
2018-12-12T08:17:55.629Z,7.84
2018-12-12T08:20:24.385Z,7.91
2018-12-12T08:22:53.554Z,8.00
2018-12-12T08:25:22.497Z,7.87
2018-12-12T08:27:50.835Z,7.97
2018-12-12T08:30:19.192Z,7.92
2018-12-12T08:32:47.546Z,7.89
2018-12-12T08:35:15.919Z,7.90
2018-12-12T08:37:44.227Z,7.78
2018-12-12T08:40:12.606Z,7.80
2018-12-12T08:42:40.997Z,7.81
2018-12-12T08:45:09.361Z,7.90
2018-12-12T08:47:37.741Z,7.71
2018-12-12T08:50:07.966Z,7.81
2018-12-12T08:52:36.315Z,7.82
2018-12-12T08:55:05.250Z,7.91
2018-12-12T08:57:33.540Z,8.04
2018-12-12T09:00:01.851Z,8.08
2018-12-12T09:02:30.160Z,8.20
2018-12-12T09:04:58.471Z,8.23
2018-12-12T09:07:26.796Z,8.29
2018-12-12T09:09:55.244Z,8.30
2018-12-12T09:12:23.554Z,8.38
2018-12-12T09:14:51.862Z,8.34
2018-12-12T09:17:20.201Z,8.48
2018-12-12T09:19:48.485Z,8.48
2018-12-12T09:22:16.790Z,8.42
2018-12-12T09:24:45.131Z,8.29
2018-12-12T09:27:13.443Z,8.39
2018-12-12T09:29:41.709Z,8.45
2018-12-12T09:32:10.400Z,8.59
2018-12-12T09:34:38.674Z,8.95
2018-12-12T09:37:07.033Z,8.98
2018-12-12T09:39:35.335Z,9.21
2018-12-12T09:42:03.760Z,9.22
2018-12-12T09:44:32.236Z,9.20
2018-12-12T09:47:00.582Z,9.25
2018-12-12T09:49:28.902Z,8.99
2018-12-12T09:51:57.228Z,9.12
2018-12-12T09:54:26.064Z,8.84
2018-12-12T09:56:54.376Z,8.82
2018-12-12T09:59:22.678Z,8.83
2018-12-12T10:01:51.023Z,8.71
2018-12-12T10:04:19.337Z,8.80
2018-12-12T10:06:47.705Z,8.78
2018-12-12T10:09:16.055Z,8.89
2018-12-12T10:11:44.347Z,9.01
2018-12-12T10:14:12.635Z,9.03
2018-12-12T10:16:41.112Z,9.02
2018-12-12T10:19:09.389Z,9.09
2018-12-12T10:21:37.683Z,9.12
2018-12-12T10:24:06.041Z,9.00
2018-12-12T10:26:34.355Z,9.01
2018-12-12T10:29:02.780Z,9.12
2018-12-12T10:31:31.178Z,9.19
2018-12-12T10:33:59.455Z,9.27
2018-12-12T10:36:27.727Z,9.39
2018-12-12T10:38:56.126Z,9.49
2018-12-12T10:41:24.466Z,9.43
2018-12-12T10:43:52.770Z,9.35
2018-12-12T10:46:21.075Z,9.39
2018-12-12T10:48:49.379Z,9.39
2018-12-12T10:51:17.669Z,9.45
2018-12-12T10:53:45.984Z,9.32
2018-12-12T10:56:14.354Z,9.41
2018-12-12T10:58:42.701Z,9.16
2018-12-12T11:01:16.740Z,9.16
2018-12-12T11:03:45.064Z,9.16
2018-12-12T11:06:13.380Z,9.13
2018-12-12T11:08:41.778Z,9.30
2018-12-12T11:11:10.198Z,9.35
2018-12-12T11:13:38.595Z,9.47
2018-12-12T11:16:07.086Z,9.76
2018-12-12T11:18:35.396Z,10.03
2018-12-12T11:21:03.730Z,10.59
2018-12-12T11:23:32.489Z,11.59
2018-12-12T11:26:00.806Z,12.22
2018-12-12T11:28:29.181Z,12.55
2018-12-12T11:30:57.526Z,12.83
2018-12-12T11:33:25.833Z,12.99
2018-12-12T11:35:54.204Z,12.82
2018-12-12T11:38:22.592Z,12.41
2018-12-12T11:40:50.932Z,11.83
2018-12-12T11:43:19.859Z,11.76
2018-12-12T11:45:48.286Z,11.22
2018-12-12T11:48:16.607Z,11.17
2018-12-12T11:50:44.920Z,11.04
2018-12-12T11:53:13.327Z,10.91
2018-12-12T11:55:41.649Z,10.99
2018-12-12T11:58:09.965Z,10.94
2018-12-12T12:00:38.299Z,11.02
2018-12-12T12:03:06.601Z,10.75
2018-12-12T12:05:34.928Z,10.57
2018-12-12T12:08:03.686Z,10.53
2018-12-12T12:10:31.992Z,10.37
2018-12-12T12:13:00.313Z,10.18
2018-12-12T12:15:28.636Z,9.95
2018-12-12T12:17:56.982Z,9.99
2018-12-12T12:20:25.288Z,9.97
2018-12-12T12:22:53.613Z,10.23
2018-12-12T12:25:21.952Z,10.32
2018-12-12T12:27:50.254Z,10.25
2018-12-12T12:30:18.949Z,10.14
2018-12-12T12:32:47.270Z,10.07
2018-12-12T12:35:15.612Z,9.84
2018-12-12T12:37:43.918Z,9.82
2018-12-12T12:40:12.295Z,10.07
2018-12-12T12:42:40.625Z,9.98
2018-12-12T12:45:08.999Z,10.06
2018-12-12T12:47:37.382Z,10.02
2018-12-12T12:50:07.079Z,9.55
2018-12-12T12:52:35.734Z,9.59
2018-12-12T12:55:04.484Z,9.87
2018-12-12T12:57:33.715Z,9.98
2018-12-12T13:00:02.094Z,9.97
2018-12-12T13:02:30.393Z,10.08
2018-12-12T13:04:58.685Z,9.99
2018-12-12T13:07:26.997Z,9.91
2018-12-12T13:09:55.342Z,10.10
2018-12-12T13:12:23.652Z,10.26
2018-12-12T13:14:52.182Z,10.25
2018-12-12T13:17:20.480Z,10.27
2018-12-12T13:19:48.794Z,10.24
2018-12-12T13:22:17.102Z,10.06
2018-12-12T13:24:45.443Z,10.18
2018-12-12T13:27:13.757Z,10.09
2018-12-12T13:29:42.098Z,10.09
2018-12-12T13:32:10.422Z,9.69
2018-12-12T13:34:38.739Z,9.68
2018-12-12T13:37:07.169Z,9.71
2018-12-12T13:39:35.497Z,9.77
2018-12-12T13:42:03.865Z,9.82
2018-12-12T13:44:32.204Z,9.84
2018-12-12T13:47:00.574Z,9.99
2018-12-12T13:49:29.194Z,10.07
2018-12-12T13:51:57.572Z,10.22
2018-12-12T13:54:26.192Z,10.08
2018-12-12T13:56:54.529Z,10.06
2018-12-12T13:59:22.914Z,9.83
2018-12-12T14:01:51.194Z,9.10
2018-12-12T14:04:22.662Z,9.00
2018-12-12T14:06:50.023Z,9.01
2018-12-12T14:09:18.308Z,9.12
2018-12-12T14:11:46.618Z,9.04
2018-12-12T14:14:14.971Z,9.11
2018-12-12T14:16:43.293Z,8.83
2018-12-12T14:19:11.620Z,8.93
2018-12-12T14:21:40.120Z,8.86
2018-12-12T14:24:08.406Z,8.68
2018-12-12T14:26:36.857Z,8.77
2018-12-12T14:29:05.264Z,8.60
2018-12-12T14:31:33.576Z,8.66
2018-12-12T14:34:02.029Z,8.72
2018-12-12T14:36:30.406Z,8.71
2018-12-12T14:38:58.830Z,8.76
2018-12-12T14:41:27.109Z,8.65
2018-12-12T14:43:55.925Z,8.65
2018-12-12T14:46:24.589Z,8.42
2018-12-12T14:48:53.547Z,8.50
2018-12-12T14:51:22.387Z,8.64
2018-12-12T14:53:50.713Z,8.51
2018-12-12T14:56:19.058Z,8.46
2018-12-12T14:58:47.447Z,8.52
2018-12-12T15:01:15.753Z,8.40
2018-12-12T15:03:44.036Z,8.27
2018-12-12T15:06:12.642Z,8.03
2018-12-12T15:08:40.989Z,8.19
2018-12-12T15:11:09.299Z,8.14
2018-12-12T15:13:37.637Z,7.85
2018-12-12T15:16:05.923Z,8.06
2018-12-12T15:18:34.272Z,7.91
2018-12-12T15:21:02.600Z,8.07
2018-12-12T15:23:30.976Z,7.93
2018-12-12T15:25:59.298Z,8.05
2018-12-12T15:28:27.964Z,8.21
2018-12-12T15:30:56.314Z,8.24
2018-12-12T15:33:24.644Z,8.37
2018-12-12T15:35:53.037Z,8.04
2018-12-12T15:38:21.340Z,7.99
2018-12-12T15:40:49.660Z,8.24
2018-12-12T15:43:18.068Z,8.23
2018-12-12T15:45:46.432Z,8.31
2018-12-12T15:48:14.768Z,8.41
2018-12-12T15:50:43.354Z,8.42
2018-12-12T15:53:11.746Z,8.13
2018-12-12T15:55:40.153Z,8.22
2018-12-12T15:58:08.552Z,8.09
2018-12-12T16:00:36.917Z,8.19
2018-12-12T16:03:05.326Z,8.25
2018-12-12T16:05:33.703Z,8.37
2018-12-12T16:08:02.062Z,8.14
2018-12-12T16:10:30.438Z,8.22
2018-12-12T16:12:58.887Z,8.22
2018-12-12T16:15:27.295Z,8.27
2018-12-12T16:17:55.682Z,8.27
2018-12-12T16:20:30.412Z,8.31
2018-12-12T16:23:05.338Z,8.25
2018-12-12T16:25:40.102Z,8.06
2018-12-12T16:28:15.283Z,8.13
2018-12-12T16:30:44.203Z,8.24
2018-12-12T16:33:12.564Z,8.09
2018-12-12T16:35:40.893Z,7.91
2018-12-12T16:38:09.296Z,8.16
2018-12-12T16:40:37.680Z,8.25
2018-12-12T16:43:06.026Z,8.19
2018-12-12T16:45:34.395Z,7.99
2018-12-12T16:48:02.711Z,7.90
2018-12-12T16:50:31.150Z,7.96
2018-12-12T16:52:59.620Z,7.89
2018-12-12T16:55:27.978Z,7.97
2018-12-12T16:57:56.371Z,7.87
2018-12-12T17:00:24.788Z,7.90
2018-12-12T17:02:53.124Z,7.95
2018-12-12T17:05:26.050Z,7.87
2018-12-12T17:07:54.419Z,7.97
2018-12-12T17:10:22.765Z,8.02
2018-12-12T17:12:51.108Z,7.79
2018-12-12T17:15:19.618Z,7.93
2018-12-12T17:17:48.031Z,7.93
2018-12-12T17:20:16.347Z,7.96
2018-12-12T17:22:44.691Z,7.96
2018-12-12T17:25:13.030Z,7.99
2018-12-12T17:27:41.416Z,7.98
2018-12-12T17:30:10.308Z,7.92
2018-12-12T17:32:38.740Z,7.73
2018-12-12T17:35:08.981Z,7.66
2018-12-12T17:37:37.756Z,7.62
2018-12-12T17:40:06.152Z,7.42
2018-12-12T17:42:34.483Z,7.28
2018-12-12T17:45:02.834Z,7.19
2018-12-12T17:47:31.166Z,7.39
2018-12-12T17:49:59.497Z,7.25
2018-12-12T17:52:27.850Z,7.20
2018-12-12T17:54:56.172Z,7.29
2018-12-12T17:57:24.515Z,7.28
2018-12-12T17:59:53.331Z,7.27
2018-12-12T18:02:21.706Z,7.16
2018-12-12T18:04:50.069Z,6.99
2018-12-12T18:07:18.443Z,7.18
2018-12-12T18:09:46.815Z,7.20
2018-12-12T18:12:15.194Z,7.20
2018-12-12T18:14:43.587Z,6.74
2018-12-12T18:17:12.074Z,7.02
2018-12-12T18:19:40.442Z,7.08
2018-12-12T18:22:09.054Z,7.07
2018-12-12T18:24:37.441Z,6.75
2018-12-12T18:27:05.913Z,6.84
2018-12-12T18:29:34.364Z,6.83
2018-12-12T18:32:02.745Z,6.61
2018-12-12T18:34:31.141Z,6.73
2018-12-12T18:36:59.592Z,6.82
2018-12-12T18:39:27.985Z,6.83
2018-12-12T18:42:04.261Z,6.87
2018-12-12T18:44:47.630Z,6.95
2018-12-12T18:47:16.024Z,7.09
2018-12-12T18:50:01.185Z,7.06
2018-12-12T18:52:29.793Z,7.12
2018-12-12T18:55:04.357Z,7.06
2018-12-12T18:57:34.191Z,6.90
2018-12-12T19:00:02.615Z,6.83
2018-12-12T19:02:30.991Z,6.86
2018-12-12T19:04:59.440Z,6.87
2018-12-12T19:07:58.000Z,6.85
2018-12-12T19:10:54.598Z,6.67
2018-12-12T19:13:22.972Z,6.26
2018-12-12T19:15:51.379Z,6.48
2018-12-12T19:18:20.089Z,6.59
2018-12-12T19:20:48.483Z,6.77
2018-12-12T19:23:46.685Z,6.88
2018-12-12T19:26:43.241Z,6.88
2018-12-12T19:35:18.126Z,7.07
2018-12-12T19:37:52.527Z,7.10
2018-12-12T19:40:27.554Z,7.15
2018-12-12T19:43:02.417Z,7.21
2018-12-12T19:45:34.284Z,7.15
2018-12-12T19:48:02.711Z,7.10
2018-12-12T19:50:31.088Z,7.02
2018-12-12T19:53:00.874Z,7.07
2018-12-12T19:55:35.785Z,7.05
2018-12-12T19:58:04.170Z,6.89
2018-12-12T20:00:33.502Z,7.00
2018-12-12T20:03:08.469Z,7.11
2018-12-12T20:08:49.291Z,7.06
2018-12-12T20:11:17.630Z,7.12
2018-12-12T20:13:47.247Z,7.05
2018-12-12T20:16:18.826Z,7.09
2018-12-12T20:18:47.233Z,7.03
2018-12-12T20:21:30.515Z,7.01
2018-12-12T20:23:58.829Z,6.89
2018-12-12T20:26:50.800Z,6.78
2018-12-12T20:32:18.657Z,6.80
2018-12-12T20:34:53.080Z,6.86
2018-12-12T20:37:27.987Z,6.83
2018-12-12T20:40:03.206Z,6.81
2018-12-12T20:42:38.078Z,6.86
2018-12-12T20:45:12.670Z,6.97
2018-12-12T20:47:47.382Z,7.00
2018-12-12T20:53:01.868Z,6.97
2018-12-12T20:55:36.736Z,6.91
2018-12-12T20:58:12.052Z,6.87
2018-12-12T21:00:48.186Z,6.83
2018-12-12T21:03:27.041Z,6.89
2018-12-12T21:05:55.462Z,6.71
2018-12-12T21:08:23.865Z,6.57
2018-12-12T21:11:05.152Z,6.63
2018-12-12T21:16:52.309Z,6.52
2018-12-12T21:19:20.645Z,6.40
2018-12-12T21:21:55.649Z,6.39
2018-12-12T21:27:29.498Z,6.29
2018-12-12T21:33:04.975Z,6.07
2018-12-12T21:38:55.957Z,5.98
2018-12-12T21:44:28.528Z,5.84
2018-12-12T21:47:02.808Z,5.76
2018-12-12T21:49:31.227Z,5.85
2018-12-12T21:52:25.569Z,5.92
2018-12-12T22:00:11.091Z,5.70
2018-12-12T22:02:39.498Z,5.66
2018-12-12T22:05:08.046Z,5.65
2018-12-12T22:07:36.739Z,5.46
2018-12-12T22:10:05.753Z,5.50
2018-12-12T22:12:34.035Z,5.32
2018-12-12T22:15:02.423Z,5.34
2018-12-12T22:17:30.728Z,5.34
2018-12-12T22:19:59.105Z,5.14
2018-12-12T22:22:27.588Z,5.23
2018-12-12T22:24:55.952Z,5.14
2018-12-12T22:27:24.272Z,5.24
2018-12-12T22:29:52.860Z,5.29
2018-12-12T22:32:21.287Z,5.36
2018-12-12T22:34:49.655Z,5.51
2018-12-12T22:37:18.025Z,5.54
2018-12-12T22:39:46.490Z,5.62
2018-12-12T22:42:14.782Z,5.65
2018-12-12T22:44:43.085Z,5.79
2018-12-12T22:47:11.376Z,5.88
2018-12-12T22:49:39.696Z,5.94
2018-12-12T22:52:08.210Z,6.06
2018-12-12T22:54:36.506Z,6.07
2018-12-12T22:57:04.846Z,5.93
2018-12-12T22:59:33.170Z,6.08
2018-12-12T23:02:01.473Z,6.13
2018-12-12T23:04:29.796Z,6.28
2018-12-12T23:06:58.135Z,6.20
2018-12-12T23:09:26.500Z,6.18
2018-12-12T23:11:54.817Z,6.35
2018-12-12T23:14:23.362Z,6.03
2018-12-12T23:16:51.674Z,6.03
2018-12-12T23:19:19.978Z,6.24
2018-12-12T23:21:48.350Z,6.37
2018-12-12T23:24:16.681Z,6.43
2018-12-12T23:26:45.016Z,6.43
2018-12-12T23:29:13.349Z,6.55
2018-12-12T23:31:41.684Z,6.45
2018-12-12T23:34:09.983Z,6.48
2018-12-12T23:36:38.500Z,6.53
2018-12-12T23:39:07.180Z,6.61
2018-12-12T23:41:35.566Z,6.52
2018-12-12T23:44:03.949Z,6.53
2018-12-12T23:46:32.274Z,6.61
2018-12-12T23:49:00.569Z,6.59
2018-12-12T23:51:29.159Z,6.72
2018-12-12T23:53:57.492Z,6.57
2018-12-12T23:56:26.118Z,6.53
2018-12-12T23:58:54.498Z,6.60
